Time;durP1;ratioP1;P1;durP2;ratioP2;P2;SDS_P1;SDS_P2;PMS_P1;PMS_P2;Temp;Humidity;BMP_temperature;BMP_pressure;BME280_temperature;BME280_humidity;BME280_pressure;Samples;Min_cycle;Max_cycle;Signal;HPM_P1;HPM_P2
2022/04/18 13:08:44;;;;;;;1.30;1.20;;;;;;;9.85;53.70;93851.44;2620030;47;20459;-85
2022/04/18 13:18:26;;;;;;;;;;;;;;;;;;;;;
2022/04/18 13:24:48;;;;;;;;;;;;;;;;;;;;;
2022/04/18 13:28:01;;;;;;;;;;;;;;;;;;;;;
2022/04/18 13:30:56;;;;;;;0.97;0.80;;;;;;;9.14;57.45;93920.44;2615751;54;20261;-84
2022/04/18 13:33:46;;;;;;;1.07;1.07;;;;;;;8.91;48.93;93926.84;2615827;54;20161;-84
2022/04/18 13:40:05;;;;;;;1.40;0.87;;;;;;;7.25;51.68;93928.22;2615292;47;20184;-85
2022/04/18 13:43:04;;;;;;;0.80;0.80;;;;;;;6.69;51.15;93758.22;2615669;54;20161;-84
2022/04/18 13:55:16;;;;;;;0.77;0.77;;;;;;;5.75;54.03;93809.78;2621858;46;20173;-85
2022/04/18 13:58:29;;;;;;;0.97;0.97;;;;;;;6.69;60.58;93800.44;2623416;46;20156;-86
2022/04/18 14:01:15;;;;;;;0.60;0.60;;;;;;;7.90;52.76;93913.41;2624510;54;20186;-84
2022/04/18 14:10:29;;;;;;;0.80;0.80;;;;;;;8.05;48.92;93906.09;2618127;39;20617;-83
2022/04/18 14:13:39;;;;;;;1.07;0.77;;;;;;;9.10;49.89;93919.59;2618079;39;20370;-85
2022/04/18 14:26:27;;;;;;;;;;;;;;;;;;;;;
2022/04/18 14:45:55;;;;;;;0.97;0.97;;;;;;;8.14;55.81;93755.47;2616795;46;20183;-85
2022/04/18 20:32:54;;;;;;;2.00;1.90;;;;;;;2.49;83.20;94034.97;2099977;55;50786;-85
2022/04/18 20:35:28;;;;;;;1.00;1.00;;;;;;;0.94;83.44;93894.06;2614151;54;20838;-83
2022/04/18 20:43:43;;;;;;;0.93;0.93;;;;;;;0.67;84.63;93859.16;2623235;39;20333;-83
2022/04/18 20:46:12;;;;;;;2.27;1.57;;;;;;;0.47;84.62;93838.50;2616772;47;20167;-83
2022/04/18 20:48:54;;;;;;;1.33;1.23;;;;;;;1.51;85.52;93973.19;2615799;54;20172;-84
2022/04/18 20:51:24;;;;;;;0.70;0.70;;;;;;;1.64;84.97;94010.88;2615768;54;20176;-82
2022/04/18 20:59:29;;;;;;;0.53;0.53;;;;;;;0.46;84.89;93856.53;2616502;39;20544;-84
2022/04/18 21:01:59;;;;;;;0.53;0.53;;;;;;;1.38;86.51;93955.06;2616903;46;20152;-82
2022/04/18 21:04:30;;;;;;;0.80;0.80;;;;;;;1.70;85.71;94011.19;2618058;54;20153;-83
2022/04/18 21:07:12;;;;;;;;;;;;;;;;;;;;;
2022/04/18 21:09:44;;;;;;;0.60;0.60;;;;;;;1.84;85.98;94023.13;2615787;46;20183;-83
2022/04/18 21:12:13;;;;;;;0.70;0.70;;;;;;;1.81;85.94;94043.91;2615811;54;20760;-83
2022/04/18 21:14:47;;;;;;;1.53;1.53;;;;;;;2.39;87.29;94031.66;2615557;54;20148;-83
2022/04/18 21:17:23;;;;;;;0.60;0.60;;;;;;;2.24;85.53;94038.56;2614824;47;20684;-83
2022/04/18 21:19:58;;;;;;;1.73;0.87;;;;;;;2.03;85.58;94006.03;2614849;47;20247;-84
2022/04/18 21:22:26;;;;;;;1.23;1.20;;;;;;;1.42;84.57;93932.97;2615278;54;20871;-82
2022/04/18 21:24:55;;;;;;;0.60;0.60;;;;;;;2.08;85.74;94034.88;2615037;54;20157;-82
2022/04/18 21:27:24;;;;;;;0.63;0.63;;;;;;;1.61;86.01;93993.28;2615462;54;20157;-83
2022/04/18 21:29:54;;;;;;;0.70;0.70;;;;;;;2.11;86.46;94031.59;2615721;54;20165;-84
2022/04/18 21:32:32;;;;;;;0.60;0.60;;;;;;;2.72;84.86;93984.47;2618186;54;20156;-83
2022/04/18 21:35:09;;;;;;;1.00;1.00;;;;;;;3.91;80.37;94025.19;2615530;54;20220;-82
2022/04/18 21:37:50;;;;;;;;;;;;;;;;;;;;;
2022/04/18 21:40:23;;;;;;;0.70;0.70;;;;;;;4.94;73.91;93979.31;2615559;54;20153;-82
2022/04/18 21:42:52;;;;;;;1.47;1.47;;;;;;;5.05;71.82;94013.41;2619421;54;20164;-82
2022/04/18 21:45:23;;;;;;;0.40;0.40;;;;;;;4.53;73.72;94052.53;2615707;54;20160;-82
2022/04/18 21:54:28;;;;;;;0.57;0.57;;;;;;;4.32;75.02;93932.47;2615209;47;20109;-83
2022/04/18 21:57:18;;;;;;;0.60;0.60;;;;;;;4.22;72.02;93873.16;2615732;54;20168;-83
2022/04/18 21:59:50;;;;;;;1.10;0.60;;;;;;;5.12;71.63;94038.28;2616079;54;20416;-84
2022/04/18 22:02:27;;;;;;;1.50;0.93;;;;;;;4.94;70.99;93940.00;2617874;39;20558;-83
2022/04/18 22:05:36;;;;;;;1.03;1.03;;;;;;;5.64;68.88;93960.38;2619130;47;20171;-82
2022/04/18 22:08:23;;;;;;;0.83;0.50;;;;;;;5.81;68.91;93998.25;2614617;46;20164;-82
2022/04/18 22:11:25;;;;;;;0.77;0.77;;;;;;;3.16;74.81;93985.91;2615768;54;20172;-83
2022/04/18 22:14:01;;;;;;;0.87;0.87;;;;;;;2.32;78.65;93944.00;2614865;47;20273;-83
2022/04/18 22:16:52;;;;;;;7.93;1.13;;;;;;;1.88;81.07;93939.59;2615252;54;20164;-84
2022/04/18 22:24:58;;;;;;;0.60;0.60;;;;;;;2.06;85.26;93990.09;2615092;47;20256;-83
2022/04/18 22:27:41;;;;;;;0.70;0.70;;;;;;;2.69;81.83;93935.38;2614953;47;20171;-83
2022/04/18 22:30:12;;;;;;;0.43;0.43;;;;;;;3.48;76.63;93969.25;2615023;54;20161;-83
2022/04/18 22:32:41;;;;;;;0.60;0.60;;;;;;;4.12;76.18;93954.69;2614779;47;20208;-83
2022/04/18 22:35:23;;;;;;;1.27;1.27;;;;;;;4.28;72.64;93932.28;2615329;54;21215;-84
2022/04/18 22:37:54;;;;;;;0.67;0.67;;;;;;;4.14;71.50;93937.97;2615473;54;20240;-83
2022/04/18 22:40:23;;;;;;;1.27;1.27;;;;;;;4.15;71.96;93936.63;2615418;54;20168;-84
2022/04/18 22:43:04;;;;;;;1.07;1.07;;;;;;;5.03;70.78;93962.81;2617505;54;20661;-83
2022/04/18 22:45:35;;;;;;;0.67;0.67;;;;;;;6.21;71.08;93942.91;2617948;54;20277;-84
2022/04/18 22:48:04;;;;;;;0.60;0.60;;;;;;;4.30;68.37;93851.09;2616492;47;20156;-85
2022/04/18 22:50:35;;;;;;;0.67;0.67;;;;;;;5.56;69.62;94022.56;2617160;54;20691;-83
2022/04/18 22:53:07;;;;;;;0.70;0.70;;;;;;;4.03;72.12;93913.66;2618540;47;20161;-82
2022/04/18 22:55:37;;;;;;;0.20;0.20;;;;;;;5.37;71.82;93938.94;2617035;39;20677;-83
2022/04/18 22:58:15;;;;;;;0.90;0.90;;;;;;;5.42;69.95;94022.00;2616221;47;20200;-84
2022/04/18 23:00:45;;;;;;;0.63;0.63;;;;;;;4.19;71.95;93992.88;2621651;39;20318;-82
2022/04/18 23:03:17;;;;;;;0.60;0.60;;;;;;;4.86;71.53;93993.00;2622212;54;20208;-83
2022/04/18 23:06:01;;;;;;;0.70;0.70;;;;;;;4.85;70.26;93926.28;2616324;39;20591;-83
2022/04/18 23:08:34;;;;;;;0.43;0.43;;;;;;;4.51;69.97;93912.25;2615843;54;20164;-83
2022/04/18 23:11:03;;;;;;;0.47;0.47;;;;;;;4.39;71.84;93919.41;2616042;54;20157;-83
2022/04/18 23:13:46;;;;;;;;;;;;;;;;;;;;;
2022/04/18 23:16:17;;;;;;;0.50;0.50;;;;;;;4.14;70.58;93898.75;2617888;54;20475;-83
2022/04/18 23:18:47;;;;;;;0.90;0.90;;;;;;;4.12;72.42;93960.31;2618131;54;20168;-84
2022/04/18 23:21:16;;;;;;;0.70;0.70;;;;;;;4.35;70.95;93942.41;2616076;47;20153;-82
2022/04/18 23:23:54;;;;;;;0.97;0.97;;;;;;;3.91;70.36;93888.66;2616202;54;20184;-83
2022/04/18 23:26:26;;;;;;;0.87;0.87;;;;;;;4.42;71.37;93929.38;2618326;54;20280;-83
2022/04/18 23:28:57;;;;;;;1.30;1.13;;;;;;;4.18;70.69;93915.03;2620626;47;20255;-83
2022/04/18 23:31:26;;;;;;;1.17;0.50;;;;;;;4.48;70.32;93885.50;2621526;54;20583;-84
2022/04/18 23:33:56;;;;;;;0.73;0.73;;;;;;;4.79;68.89;93935.16;2617381;54;20732;-82
2022/04/18 23:36:26;;;;;;;0.60;0.60;;;;;;;4.28;70.76;93868.53;2616353;54;20160;-83
2022/04/18 23:38:56;;;;;;;0.60;0.60;;;;;;;5.02;69.53;93981.75;2615928;47;20174;-83
2022/04/18 23:44:10;;;;;;;0.80;0.80;;;;;;;4.76;69.92;93949.78;2616064;46;20181;-83
2022/04/18 23:46:42;;;;;;;0.60;0.60;;;;;;;4.71;69.59;93956.56;2615739;54;20159;-83
2022/04/18 23:49:12;;;;;;;0.33;0.33;;;;;;;4.50;68.57;93887.69;2615943;47;20156;-84
2022/04/18 23:51:41;;;;;;;0.60;0.60;;;;;;;4.80;68.52;93910.66;2616169;54;20184;-83
2022/04/18 23:54:10;;;;;;;0.47;0.47;;;;;;;5.02;68.11;93896.81;2616205;54;20145;-82
2022/04/18 23:56:41;;;;;;;0.40;0.40;;;;;;;5.22;67.51;93995.88;2618112;54;20168;-82
2022/04/18 23:59:16;;;;;;;0.63;0.63;;;;;;;4.70;69.86;93988.75;2617522;46;20180;-80
